sensor_id;sensor_type;location;lat;lon;timestamp;pressure;altitude;pressure_sealevel;temperature;humidity
75536;BME280;64119;52.070;20.804;2023-04-25T00:01:59;99122.77;;;11.16;73.99
75536;BME280;64119;52.070;20.804;2023-04-25T00:04:27;99121.63;;;11.16;75.26
75536;BME280;64119;52.070;20.804;2023-04-25T00:06:55;99121.73;;;11.17;75.50
75536;BME280;64119;52.070;20.804;2023-04-25T00:09:23;99121.29;;;11.17;76.98
75536;BME280;64119;52.070;20.804;2023-04-25T00:11:51;99122.69;;;11.16;75.92
75536;BME280;64119;52.070;20.804;2023-04-25T00:14:19;99120.31;;;11.13;76.15
75536;BME280;64119;52.070;20.804;2023-04-25T00:16:47;99123.36;;;11.10;77.10
75536;BME280;64119;52.070;20.804;2023-04-25T00:19:16;99119.96;;;11.08;76.20
75536;BME280;64119;52.070;20.804;2023-04-25T00:21:44;99118.98;;;11.08;75.85
75536;BME280;64119;52.070;20.804;2023-04-25T00:24:13;99120.77;;;11.05;76.33
75536;BME280;64119;52.070;20.804;2023-04-25T00:26:42;99119.51;;;11.02;75.85
75536;BME280;64119;52.070;20.804;2023-04-25T00:29:09;99119.48;;;11.01;76.22
75536;BME280;64119;52.070;20.804;2023-04-25T00:31:38;99118.41;;;10.97;76.50
75536;BME280;64119;52.070;20.804;2023-04-25T00:37:26;99120.08;;;10.91;76.73
75536;BME280;64119;52.070;20.804;2023-04-25T00:39:54;99119.21;;;10.83;77.07
75536;BME280;64119;52.070;20.804;2023-04-25T00:42:24;99118.45;;;10.79;77.24
75536;BME280;64119;52.070;20.804;2023-04-25T00:44:52;99121.95;;;10.74;77.19
75536;BME280;64119;52.070;20.804;2023-04-25T00:47:21;99120.20;;;10.70;77.17
75536;BME280;64119;52.070;20.804;2023-04-25T00:49:49;99119.89;;;10.65;77.16
75536;BME280;64119;52.070;20.804;2023-04-25T00:52:17;99121.52;;;10.61;77.44
75536;BME280;64119;52.070;20.804;2023-04-25T00:54:45;99121.30;;;10.57;77.80
75536;BME280;64119;52.070;20.804;2023-04-25T00:57:13;99125.47;;;10.53;78.51
75536;BME280;64119;52.070;20.804;2023-04-25T00:59:45;99122.31;;;10.49;78.82
75536;BME280;64119;52.070;20.804;2023-04-25T01:02:14;99123.67;;;10.47;78.71
75536;BME280;64119;52.070;20.804;2023-04-25T01:04:42;99122.70;;;10.44;78.76
75536;BME280;64119;52.070;20.804;2023-04-25T01:07:10;99122.88;;;10.42;79.20
75536;BME280;64119;52.070;20.804;2023-04-25T01:09:38;99121.51;;;10.39;78.79
75536;BME280;64119;52.070;20.804;2023-04-25T01:12:07;99122.46;;;10.37;79.22
75536;BME280;64119;52.070;20.804;2023-04-25T01:14:35;99120.11;;;10.35;79.77
75536;BME280;64119;52.070;20.804;2023-04-25T01:17:05;99121.39;;;10.35;79.54
75536;BME280;64119;52.070;20.804;2023-04-25T01:19:35;99122.23;;;10.35;78.59
75536;BME280;64119;52.070;20.804;2023-04-25T01:22:03;99118.81;;;10.36;79.74
75536;BME280;64119;52.070;20.804;2023-04-25T01:24:32;99114.52;;;10.36;78.39
75536;BME280;64119;52.070;20.804;2023-04-25T01:27:00;99115.80;;;10.38;79.11
75536;BME280;64119;52.070;20.804;2023-04-25T01:29:30;99118.21;;;10.39;79.37
75536;BME280;64119;52.070;20.804;2023-04-25T01:31:59;99116.38;;;10.40;79.13
75536;BME280;64119;52.070;20.804;2023-04-25T01:37:57;99110.77;;;10.50;79.38
75536;BME280;64119;52.070;20.804;2023-04-25T01:40:24;99114.73;;;10.53;80.43
75536;BME280;64119;52.070;20.804;2023-04-25T01:42:51;99115.36;;;10.56;80.82
75536;BME280;64119;52.070;20.804;2023-04-25T01:45:19;99113.46;;;10.59;80.15
75536;BME280;64119;52.070;20.804;2023-04-25T01:47:46;99118.08;;;10.62;81.68
75536;BME280;64119;52.070;20.804;2023-04-25T01:50:18;99119.23;;;10.66;81.78
75536;BME280;64119;52.070;20.804;2023-04-25T01:52:45;99118.50;;;10.68;82.81
75536;BME280;64119;52.070;20.804;2023-04-25T01:55:12;99122.81;;;10.71;81.76
75536;BME280;64119;52.070;20.804;2023-04-25T01:57:46;99125.45;;;10.76;81.02
75536;BME280;64119;52.070;20.804;2023-04-25T02:00:14;99119.61;;;10.77;80.50
75536;BME280;64119;52.070;20.804;2023-04-25T02:02:40;99121.52;;;10.78;80.65
75536;BME280;64119;52.070;20.804;2023-04-25T02:05:24;99114.77;;;10.80;81.03
75536;BME280;64119;52.070;20.804;2023-04-25T02:07:51;99112.46;;;10.81;80.83
75536;BME280;64119;52.070;20.804;2023-04-25T02:10:17;99110.95;;;10.82;80.23
75536;BME280;64119;52.070;20.804;2023-04-25T02:13:10;99110.34;;;10.81;82.10
75536;BME280;64119;52.070;20.804;2023-04-25T02:15:45;99109.16;;;10.81;81.77
75536;BME280;64119;52.070;20.804;2023-04-25T02:18:17;99103.19;;;10.79;81.16
75536;BME280;64119;52.070;20.804;2023-04-25T02:20:45;99098.32;;;10.80;81.08
75536;BME280;64119;52.070;20.804;2023-04-25T02:23:13;99101.14;;;10.79;81.57
75536;BME280;64119;52.070;20.804;2023-04-25T02:25:41;99103.27;;;10.79;81.14
75536;BME280;64119;52.070;20.804;2023-04-25T02:28:08;99108.40;;;10.80;81.27
75536;BME280;64119;52.070;20.804;2023-04-25T02:30:35;99107.15;;;10.81;82.13
75536;BME280;64119;52.070;20.804;2023-04-25T02:33:04;99105.31;;;10.82;81.13
75536;BME280;64119;52.070;20.804;2023-04-25T02:35:31;99105.83;;;10.83;82.03
75536;BME280;64119;52.070;20.804;2023-04-25T02:37:59;99104.71;;;10.83;81.43
75536;BME280;64119;52.070;20.804;2023-04-25T02:40:25;99103.91;;;10.84;80.63
75536;BME280;64119;52.070;20.804;2023-04-25T02:42:53;99098.68;;;10.85;81.11
75536;BME280;64119;52.070;20.804;2023-04-25T02:45:20;99098.05;;;10.85;81.07
75536;BME280;64119;52.070;20.804;2023-04-25T02:47:46;99096.30;;;10.85;81.17
75536;BME280;64119;52.070;20.804;2023-04-25T02:50:13;99096.20;;;10.86;80.53
75536;BME280;64119;52.070;20.804;2023-04-25T02:52:39;99094.48;;;10.85;81.08
75536;BME280;64119;52.070;20.804;2023-04-25T02:55:15;99093.86;;;10.85;81.15
75536;BME280;64119;52.070;20.804;2023-04-25T02:57:41;99095.73;;;10.84;81.76
75536;BME280;64119;52.070;20.804;2023-04-25T03:00:10;99098.96;;;10.84;81.46
75536;BME280;64119;52.070;20.804;2023-04-25T03:02:38;99099.50;;;10.84;81.50
75536;BME280;64119;52.070;20.804;2023-04-25T03:05:06;99096.45;;;10.85;81.35
75536;BME280;64119;52.070;20.804;2023-04-25T03:07:32;99099.48;;;10.85;81.72
75536;BME280;64119;52.070;20.804;2023-04-25T03:09:59;99098.07;;;10.88;81.63
75536;BME280;64119;52.070;20.804;2023-04-25T03:12:26;99097.45;;;10.88;81.05
75536;BME280;64119;52.070;20.804;2023-04-25T03:14:52;99096.93;;;10.90;80.91
75536;BME280;64119;52.070;20.804;2023-04-25T03:17:19;99097.86;;;10.92;81.33
75536;BME280;64119;52.070;20.804;2023-04-25T03:19:46;99098.65;;;10.93;81.55
75536;BME280;64119;52.070;20.804;2023-04-25T03:22:12;99099.51;;;10.93;81.43
75536;BME280;64119;52.070;20.804;2023-04-25T03:24:39;99103.45;;;10.94;81.86
75536;BME280;64119;52.070;20.804;2023-04-25T03:27:06;99101.09;;;10.95;81.56
75536;BME280;64119;52.070;20.804;2023-04-25T03:29:32;99105.16;;;10.96;82.91
75536;BME280;64119;52.070;20.804;2023-04-25T03:32:00;99106.50;;;10.95;81.52
75536;BME280;64119;52.070;20.804;2023-04-25T03:37:30;99110.59;;;11.04;81.58
75536;BME280;64119;52.070;20.804;2023-04-25T03:39:57;99114.59;;;11.03;82.49
75536;BME280;64119;52.070;20.804;2023-04-25T03:42:30;99117.60;;;11.02;81.78
75536;BME280;64119;52.070;20.804;2023-04-25T03:44:58;99120.55;;;11.03;82.23
75536;BME280;64119;52.070;20.804;2023-04-25T03:47:25;99119.17;;;11.02;81.88
75536;BME280;64119;52.070;20.804;2023-04-25T03:49:54;99122.88;;;10.99;82.35
75536;BME280;64119;52.070;20.804;2023-04-25T03:52:23;99123.95;;;10.98;82.59
75536;BME280;64119;52.070;20.804;2023-04-25T03:54:51;99126.14;;;10.96;83.12
75536;BME280;64119;52.070;20.804;2023-04-25T03:57:21;99129.89;;;10.95;83.48
75536;BME280;64119;52.070;20.804;2023-04-25T03:59:49;99133.11;;;10.93;83.65
75536;BME280;64119;52.070;20.804;2023-04-25T04:02:17;99127.16;;;10.92;82.93
75536;BME280;64119;52.070;20.804;2023-04-25T04:04:45;99123.30;;;10.90;83.35
75536;BME280;64119;52.070;20.804;2023-04-25T04:07:14;99127.41;;;10.84;84.01
75536;BME280;64119;52.070;20.804;2023-04-25T04:09:45;99131.86;;;10.80;83.59
75536;BME280;64119;52.070;20.804;2023-04-25T04:12:19;99137.59;;;10.79;84.22
75536;BME280;64119;52.070;20.804;2023-04-25T04:14:47;99143.02;;;10.78;84.30
75536;BME280;64119;52.070;20.804;2023-04-25T04:17:14;99145.23;;;10.77;84.00
75536;BME280;64119;52.070;20.804;2023-04-25T04:19:42;99153.65;;;10.75;84.25
75536;BME280;64119;52.070;20.804;2023-04-25T04:22:18;99156.79;;;10.72;84.42
75536;BME280;64119;52.070;20.804;2023-04-25T04:24:46;99158.99;;;10.71;85.00
75536;BME280;64119;52.070;20.804;2023-04-25T04:27:19;99162.88;;;10.73;84.15
75536;BME280;64119;52.070;20.804;2023-04-25T04:29:54;99162.41;;;10.73;84.15
75536;BME280;64119;52.070;20.804;2023-04-25T04:32:29;99162.20;;;10.70;86.07
75536;BME280;64119;52.070;20.804;2023-04-25T04:34:57;99158.70;;;10.68;86.12
75536;BME280;64119;52.070;20.804;2023-04-25T04:37:27;99161.10;;;10.65;87.11
75536;BME280;64119;52.070;20.804;2023-04-25T04:39:57;99159.48;;;10.63;86.67
75536;BME280;64119;52.070;20.804;2023-04-25T04:42:37;99162.13;;;10.60;86.35
75536;BME280;64119;52.070;20.804;2023-04-25T04:45:25;99162.74;;;10.55;86.17
75536;BME280;64119;52.070;20.804;2023-04-25T04:48:27;99161.23;;;10.50;86.30
75536;BME280;64119;52.070;20.804;2023-04-25T04:51:02;99169.26;;;10.51;86.17
75536;BME280;64119;52.070;20.804;2023-04-25T04:53:48;99166.04;;;10.52;86.11
75536;BME280;64119;52.070;20.804;2023-04-25T04:56:55;99164.95;;;10.49;86.60
75536;BME280;64119;52.070;20.804;2023-04-25T04:59:35;99165.27;;;10.46;87.42
75536;BME280;64119;52.070;20.804;2023-04-25T05:02:27;99168.00;;;10.41;88.65
75536;BME280;64119;52.070;20.804;2023-04-25T05:05:19;99159.02;;;10.43;87.25
75536;BME280;64119;52.070;20.804;2023-04-25T05:08:10;99162.10;;;10.44;86.86
75536;BME280;64119;52.070;20.804;2023-04-25T05:10:57;99160.21;;;10.40;88.61
75536;BME280;64119;52.070;20.804;2023-04-25T05:13:37;99149.71;;;10.37;88.56
75536;BME280;64119;52.070;20.804;2023-04-25T05:16:24;99152.64;;;10.34;89.39
75536;BME280;64119;52.070;20.804;2023-04-25T05:18:57;99148.52;;;10.32;88.92
75536;BME280;64119;52.070;20.804;2023-04-25T05:21:51;99152.66;;;10.30;88.83
75536;BME280;64119;52.070;20.804;2023-04-25T05:24:46;99153.35;;;10.32;88.81
75536;BME280;64119;52.070;20.804;2023-04-25T05:27:32;99158.20;;;10.31;89.42
75536;BME280;64119;52.070;20.804;2023-04-25T05:30:00;99158.15;;;10.32;88.63
75536;BME280;64119;52.070;20.804;2023-04-25T05:32:48;99157.99;;;10.36;89.42
75536;BME280;64119;52.070;20.804;2023-04-25T05:35:16;99155.23;;;10.34;88.70
75536;BME280;64119;52.070;20.804;2023-04-25T05:37:47;99157.18;;;10.36;88.78
75536;BME280;64119;52.070;20.804;2023-04-25T05:40:15;99158.00;;;10.36;88.60
75536;BME280;64119;52.070;20.804;2023-04-25T05:43:02;99160.71;;;10.34;88.69
75536;BME280;64119;52.070;20.804;2023-04-25T05:45:44;99165.33;;;10.33;89.01
75536;BME280;64119;52.070;20.804;2023-04-25T05:48:30;99172.09;;;10.29;89.91
75536;BME280;64119;52.070;20.804;2023-04-25T05:51:05;99175.38;;;10.31;88.17
75536;BME280;64119;52.070;20.804;2023-04-25T05:54:08;99181.81;;;10.31;88.05
75536;BME280;64119;52.070;20.804;2023-04-25T05:56:35;99188.33;;;10.33;87.10
75536;BME280;64119;52.070;20.804;2023-04-25T05:59:03;99193.13;;;10.34;87.25
75536;BME280;64119;52.070;20.804;2023-04-25T06:01:34;99200.08;;;10.32;87.89
75536;BME280;64119;52.070;20.804;2023-04-25T06:04:02;99204.91;;;10.31;87.01
75536;BME280;64119;52.070;20.804;2023-04-25T06:06:32;99208.55;;;10.27;87.76
75536;BME280;64119;52.070;20.804;2023-04-25T06:09:00;99210.24;;;10.24;86.86
75536;BME280;64119;52.070;20.804;2023-04-25T06:11:31;99213.86;;;10.20;87.38
75536;BME280;64119;52.070;20.804;2023-04-25T06:14:00;99223.91;;;10.15;87.55
75536;BME280;64119;52.070;20.804;2023-04-25T06:16:28;99233.46;;;10.03;87.49
75536;BME280;64119;52.070;20.804;2023-04-25T06:18:56;99241.02;;;9.97;87.30
75536;BME280;64119;52.070;20.804;2023-04-25T06:21:24;99244.48;;;9.93;87.30
75536;BME280;64119;52.070;20.804;2023-04-25T06:23:53;99244.17;;;9.90;87.41
75536;BME280;64119;52.070;20.804;2023-04-25T06:26:23;99238.30;;;9.88;88.09
75536;BME280;64119;52.070;20.804;2023-04-25T06:28:52;99238.30;;;9.87;87.67
75536;BME280;64119;52.070;20.804;2023-04-25T06:31:20;99237.13;;;9.87;87.78
75536;BME280;64119;52.070;20.804;2023-04-25T06:33:49;99240.13;;;9.88;88.92
75536;BME280;64119;52.070;20.804;2023-04-25T06:36:17;99236.86;;;9.92;88.32
75536;BME280;64119;52.070;20.804;2023-04-25T06:38:47;99232.69;;;9.93;88.10
75536;BME280;64119;52.070;20.804;2023-04-25T06:41:15;99233.19;;;9.93;88.59
75536;BME280;64119;52.070;20.804;2023-04-25T06:43:43;99233.88;;;9.93;88.79
75536;BME280;64119;52.070;20.804;2023-04-25T06:46:43;99230.16;;;9.93;88.44
75536;BME280;64119;52.070;20.804;2023-04-25T06:49:13;99230.80;;;9.89;88.88
75536;BME280;64119;52.070;20.804;2023-04-25T06:51:41;99228.52;;;9.88;88.19
75536;BME280;64119;52.070;20.804;2023-04-25T06:54:09;99225.45;;;9.85;88.45
75536;BME280;64119;52.070;20.804;2023-04-25T06:56:45;99225.77;;;9.82;89.88
75536;BME280;64119;52.070;20.804;2023-04-25T06:59:14;99220.98;;;9.83;89.06
75536;BME280;64119;52.070;20.804;2023-04-25T07:01:44;99221.83;;;9.80;89.05
75536;BME280;64119;52.070;20.804;2023-04-25T07:04:18;99224.75;;;9.76;89.39
75536;BME280;64119;52.070;20.804;2023-04-25T07:06:53;99228.06;;;9.74;88.85
75536;BME280;64119;52.070;20.804;2023-04-25T07:09:24;99225.90;;;9.73;88.62
75536;BME280;64119;52.070;20.804;2023-04-25T07:11:52;99224.92;;;9.72;88.96
75536;BME280;64119;52.070;20.804;2023-04-25T07:14:20;99231.49;;;9.71;89.52
75536;BME280;64119;52.070;20.804;2023-04-25T07:16:48;99231.17;;;9.69;89.07
75536;BME280;64119;52.070;20.804;2023-04-25T07:19:17;99235.64;;;9.70;89.33
75536;BME280;64119;52.070;20.804;2023-04-25T07:21:45;99242.83;;;9.69;89.61
75536;BME280;64119;52.070;20.804;2023-04-25T07:24:13;99243.91;;;9.71;89.06
75536;BME280;64119;52.070;20.804;2023-04-25T07:26:43;99247.81;;;9.74;89.09
75536;BME280;64119;52.070;20.804;2023-04-25T07:29:24;99250.95;;;9.75;88.63
75536;BME280;64119;52.070;20.804;2023-04-25T07:31:52;99247.84;;;9.77;88.89
75536;BME280;64119;52.070;20.804;2023-04-25T07:34:21;99247.21;;;9.81;88.52
75536;BME280;64119;52.070;20.804;2023-04-25T07:36:49;99243.49;;;9.83;88.52
75536;BME280;64119;52.070;20.804;2023-04-25T07:39:17;99243.15;;;9.81;89.08
75536;BME280;64119;52.070;20.804;2023-04-25T07:41:45;99246.89;;;9.82;88.23
75536;BME280;64119;52.070;20.804;2023-04-25T07:44:17;99246.18;;;9.86;88.24
75536;BME280;64119;52.070;20.804;2023-04-25T07:46:45;99241.45;;;9.85;88.32
75536;BME280;64119;52.070;20.804;2023-04-25T07:49:13;99242.02;;;9.86;87.42
75536;BME280;64119;52.070;20.804;2023-04-25T07:51:41;99240.67;;;9.84;88.13
75536;BME280;64119;52.070;20.804;2023-04-25T07:54:14;99245.31;;;9.80;88.77
75536;BME280;64119;52.070;20.804;2023-04-25T07:56:46;99247.64;;;9.79;88.48
75536;BME280;64119;52.070;20.804;2023-04-25T07:59:20;99249.99;;;9.80;88.55
75536;BME280;64119;52.070;20.804;2023-04-25T08:01:49;99247.64;;;9.84;88.32
75536;BME280;64119;52.070;20.804;2023-04-25T08:04:18;99249.56;;;9.84;88.17
75536;BME280;64119;52.070;20.804;2023-04-25T08:06:55;99252.70;;;9.86;88.97
75536;BME280;64119;52.070;20.804;2023-04-25T08:09:26;99256.48;;;9.88;87.96
75536;BME280;64119;52.070;20.804;2023-04-25T08:11:55;99255.98;;;9.86;88.35
75536;BME280;64119;52.070;20.804;2023-04-25T08:14:28;99260.65;;;9.84;87.39
75536;BME280;64119;52.070;20.804;2023-04-25T08:16:56;99265.27;;;9.83;87.72
75536;BME280;64119;52.070;20.804;2023-04-25T08:19:24;99266.65;;;9.82;87.54
75536;BME280;64119;52.070;20.804;2023-04-25T08:21:52;99269.23;;;9.81;87.96
75536;BME280;64119;52.070;20.804;2023-04-25T08:24:25;99266.18;;;9.85;87.36
75536;BME280;64119;52.070;20.804;2023-04-25T08:26:53;99272.83;;;9.88;87.30
75536;BME280;64119;52.070;20.804;2023-04-25T08:29:22;99276.97;;;9.90;87.06
75536;BME280;64119;52.070;20.804;2023-04-25T08:31:53;99281.13;;;9.91;86.82
75536;BME280;64119;52.070;20.804;2023-04-25T08:34:21;99281.45;;;9.90;86.52
75536;BME280;64119;52.070;20.804;2023-04-25T08:36:50;99283.52;;;9.93;86.01
75536;BME280;64119;52.070;20.804;2023-04-25T08:39:22;99283.27;;;9.92;86.21
75536;BME280;64119;52.070;20.804;2023-04-25T08:42:09;99285.84;;;9.94;85.60
75536;BME280;64119;52.070;20.804;2023-04-25T08:44:40;99284.59;;;9.88;85.43
75536;BME280;64119;52.070;20.804;2023-04-25T08:47:07;99285.75;;;9.85;85.73
75536;BME280;64119;52.070;20.804;2023-04-25T08:49:49;99286.36;;;9.85;85.76
75536;BME280;64119;52.070;20.804;2023-04-25T08:52:22;99289.77;;;9.90;86.73
75536;BME280;64119;52.070;20.804;2023-04-25T08:54:51;99291.86;;;9.97;86.24
75536;BME280;64119;52.070;20.804;2023-04-25T08:57:21;99291.10;;;10.03;86.18
75536;BME280;64119;52.070;20.804;2023-04-25T08:59:49;99299.11;;;10.08;86.09
75536;BME280;64119;52.070;20.804;2023-04-25T09:02:17;99298.27;;;10.13;85.07
75536;BME280;64119;52.070;20.804;2023-04-25T09:04:49;99302.16;;;10.14;84.71
75536;BME280;64119;52.070;20.804;2023-04-25T09:07:17;99309.34;;;10.13;84.99
75536;BME280;64119;52.070;20.804;2023-04-25T09:09:46;99315.82;;;10.11;85.40
75536;BME280;64119;52.070;20.804;2023-04-25T09:12:19;99318.91;;;10.11;84.91
75536;BME280;64119;52.070;20.804;2023-04-25T09:15:08;99319.61;;;10.12;84.84
75536;BME280;64119;52.070;20.804;2023-04-25T09:17:56;99319.86;;;10.06;84.48
75536;BME280;64119;52.070;20.804;2023-04-25T09:20:28;99325.34;;;10.02;84.61
75536;BME280;64119;52.070;20.804;2023-04-25T09:23:05;99324.36;;;10.02;84.82
75536;BME280;64119;52.070;20.804;2023-04-25T09:25:36;99324.16;;;10.00;84.63
75536;BME280;64119;52.070;20.804;2023-04-25T09:28:07;99334.06;;;10.03;84.78
75536;BME280;64119;52.070;20.804;2023-04-25T09:30:36;99335.57;;;10.02;85.14
75536;BME280;64119;52.070;20.804;2023-04-25T09:33:11;99338.02;;;9.99;84.95
75536;BME280;64119;52.070;20.804;2023-04-25T09:35:44;99345.33;;;10.00;85.53
75536;BME280;64119;52.070;20.804;2023-04-25T09:38:42;99349.55;;;10.00;85.12
75536;BME280;64119;52.070;20.804;2023-04-25T09:41:22;99348.49;;;10.00;85.01
75536;BME280;64119;52.070;20.804;2023-04-25T09:43:51;99348.94;;;10.02;84.53
75536;BME280;64119;52.070;20.804;2023-04-25T09:46:19;99348.16;;;10.01;84.58
75536;BME280;64119;52.070;20.804;2023-04-25T09:48:52;99345.88;;;10.04;85.25
75536;BME280;64119;52.070;20.804;2023-04-25T09:51:33;99347.57;;;10.09;85.47
75536;BME280;64119;52.070;20.804;2023-04-25T09:54:02;99347.29;;;10.11;85.08
75536;BME280;64119;52.070;20.804;2023-04-25T09:56:48;99347.36;;;10.11;84.83
75536;BME280;64119;52.070;20.804;2023-04-25T09:59:22;99350.06;;;10.15;85.24
75536;BME280;64119;52.070;20.804;2023-04-25T10:01:52;99347.09;;;10.16;84.29
75536;BME280;64119;52.070;20.804;2023-04-25T10:04:27;99351.12;;;10.18;84.35
75536;BME280;64119;52.070;20.804;2023-04-25T10:07:08;99354.67;;;10.16;84.18
75536;BME280;64119;52.070;20.804;2023-04-25T10:09:37;99360.91;;;10.14;84.50
75536;BME280;64119;52.070;20.804;2023-04-25T10:12:07;99354.79;;;10.15;84.13
75536;BME280;64119;52.070;20.804;2023-04-25T10:14:35;99357.27;;;10.18;84.10
75536;BME280;64119;52.070;20.804;2023-04-25T10:17:03;99358.13;;;10.18;83.51
75536;BME280;64119;52.070;20.804;2023-04-25T10:19:31;99360.38;;;10.18;83.56
75536;BME280;64119;52.070;20.804;2023-04-25T10:22:14;99355.88;;;10.20;84.51
75536;BME280;64119;52.070;20.804;2023-04-25T10:24:45;99355.21;;;10.22;83.24
75536;BME280;64119;52.070;20.804;2023-04-25T10:27:14;99354.41;;;10.19;83.35
75536;BME280;64119;52.070;20.804;2023-04-25T10:29:42;99358.77;;;10.22;83.04
75536;BME280;64119;52.070;20.804;2023-04-25T10:32:12;99356.15;;;10.24;83.02
75536;BME280;64119;52.070;20.804;2023-04-25T10:34:43;99353.44;;;10.27;83.60
75536;BME280;64119;52.070;20.804;2023-04-25T10:37:11;99350.65;;;10.30;82.95
75536;BME280;64119;52.070;20.804;2023-04-25T10:39:41;99350.21;;;10.29;82.96
75536;BME280;64119;52.070;20.804;2023-04-25T10:42:09;99347.21;;;10.31;82.67
75536;BME280;64119;52.070;20.804;2023-04-25T10:44:38;99348.21;;;10.29;83.37
75536;BME280;64119;52.070;20.804;2023-04-25T10:47:07;99346.67;;;10.34;83.17
75536;BME280;64119;52.070;20.804;2023-04-25T10:49:41;99345.75;;;10.41;82.72
75536;BME280;64119;52.070;20.804;2023-04-25T10:52:26;99346.27;;;10.44;82.69
75536;BME280;64119;52.070;20.804;2023-04-25T10:54:57;99349.05;;;10.48;82.64
75536;BME280;64119;52.070;20.804;2023-04-25T10:57:42;99348.99;;;10.52;82.94
75536;BME280;64119;52.070;20.804;2023-04-25T11:00:20;99349.33;;;10.59;82.43
75536;BME280;64119;52.070;20.804;2023-04-25T11:02:59;99350.61;;;10.68;82.47
75536;BME280;64119;52.070;20.804;2023-04-25T11:05:34;99351.52;;;10.73;81.50
75536;BME280;64119;52.070;20.804;2023-04-25T11:08:27;99352.45;;;10.74;82.20
75536;BME280;64119;52.070;20.804;2023-04-25T11:11:01;99347.92;;;10.82;82.11
75536;BME280;64119;52.070;20.804;2023-04-25T11:13:29;99348.02;;;10.89;82.15
75536;BME280;64119;52.070;20.804;2023-04-25T11:15:58;99350.35;;;10.96;82.09
75536;BME280;64119;52.070;20.804;2023-04-25T11:18:43;99351.05;;;11.05;80.45
75536;BME280;64119;52.070;20.804;2023-04-25T11:21:11;99348.48;;;11.07;79.77
75536;BME280;64119;52.070;20.804;2023-04-25T11:23:40;99349.88;;;11.09;79.78
75536;BME280;64119;52.070;20.804;2023-04-25T11:26:13;99349.19;;;11.12;78.88
75536;BME280;64119;52.070;20.804;2023-04-25T11:28:45;99351.23;;;11.13;78.38
75536;BME280;64119;52.070;20.804;2023-04-25T11:31:13;99350.75;;;11.13;78.23
75536;BME280;64119;52.070;20.804;2023-04-25T11:33:41;99356.98;;;11.15;78.23
75536;BME280;64119;52.070;20.804;2023-04-25T11:36:10;99357.52;;;11.19;77.85
75536;BME280;64119;52.070;20.804;2023-04-25T11:38:38;99356.11;;;11.16;77.58
75536;BME280;64119;52.070;20.804;2023-04-25T11:41:05;99355.87;;;11.17;77.51
75536;BME280;64119;52.070;20.804;2023-04-25T11:43:33;99355.65;;;11.18;78.09
75536;BME280;64119;52.070;20.804;2023-04-25T11:46:06;99354.28;;;11.20;77.61
75536;BME280;64119;52.070;20.804;2023-04-25T11:48:41;99359.05;;;11.21;77.75
75536;BME280;64119;52.070;20.804;2023-04-25T11:51:10;99357.88;;;11.25;77.15
75536;BME280;64119;52.070;20.804;2023-04-25T11:53:41;99355.93;;;11.19;76.42
75536;BME280;64119;52.070;20.804;2023-04-25T11:56:10;99354.20;;;11.15;76.88
75536;BME280;64119;52.070;20.804;2023-04-25T11:59:01;99354.83;;;11.14;76.71
75536;BME280;64119;52.070;20.804;2023-04-25T12:01:35;99347.98;;;11.06;75.58
75536;BME280;64119;52.070;20.804;2023-04-25T12:04:16;99350.89;;;11.06;76.89
75536;BME280;64119;52.070;20.804;2023-04-25T12:06:46;99352.52;;;11.10;76.84
75536;BME280;64119;52.070;20.804;2023-04-25T12:09:33;99353.52;;;11.08;76.12
75536;BME280;64119;52.070;20.804;2023-04-25T12:12:02;99349.39;;;11.04;76.47
75536;BME280;64119;52.070;20.804;2023-04-25T12:14:35;99353.17;;;10.98;76.65
75536;BME280;64119;52.070;20.804;2023-04-25T12:17:04;99354.36;;;10.94;76.54
75536;BME280;64119;52.070;20.804;2023-04-25T12:19:36;99359.36;;;10.91;77.01
75536;BME280;64119;52.070;20.804;2023-04-25T12:22:22;99356.40;;;10.88;77.77
75536;BME280;64119;52.070;20.804;2023-04-25T12:24:53;99358.70;;;10.87;77.81
75536;BME280;64119;52.070;20.804;2023-04-25T12:27:21;99356.77;;;10.88;77.55
75536;BME280;64119;52.070;20.804;2023-04-25T12:29:54;99353.83;;;10.88;76.64
75536;BME280;64119;52.070;20.804;2023-04-25T12:32:22;99353.11;;;10.85;76.99
75536;BME280;64119;52.070;20.804;2023-04-25T12:37:55;99348.19;;;10.89;75.79
75536;BME280;64119;52.070;20.804;2023-04-25T12:40:23;99348.89;;;10.90;76.17
75536;BME280;64119;52.070;20.804;2023-04-25T12:42:51;99350.16;;;10.92;76.30
75536;BME280;64119;52.070;20.804;2023-04-25T12:45:18;99349.39;;;10.95;76.47
75536;BME280;64119;52.070;20.804;2023-04-25T12:47:46;99351.42;;;10.98;77.38
75536;BME280;64119;52.070;20.804;2023-04-25T12:50:14;99351.39;;;10.98;77.30
75536;BME280;64119;52.070;20.804;2023-04-25T12:52:42;99353.94;;;10.97;77.59
75536;BME280;64119;52.070;20.804;2023-04-25T12:55:10;99348.86;;;10.93;77.33
75536;BME280;64119;52.070;20.804;2023-04-25T12:57:37;99350.21;;;10.92;77.41
75536;BME280;64119;52.070;20.804;2023-04-25T13:00:06;99349.90;;;10.95;77.26
75536;BME280;64119;52.070;20.804;2023-04-25T13:02:36;99351.65;;;10.95;77.64
75536;BME280;64119;52.070;20.804;2023-04-25T13:05:04;99347.14;;;10.94;77.81
75536;BME280;64119;52.070;20.804;2023-04-25T13:07:34;99345.96;;;10.92;77.99
75536;BME280;64119;52.070;20.804;2023-04-25T13:10:02;99343.04;;;10.95;79.19
75536;BME280;64119;52.070;20.804;2023-04-25T13:12:30;99340.52;;;10.96;78.39
75536;BME280;64119;52.070;20.804;2023-04-25T13:14:58;99340.42;;;11.01;78.18
75536;BME280;64119;52.070;20.804;2023-04-25T13:17:26;99337.81;;;11.02;78.17
75536;BME280;64119;52.070;20.804;2023-04-25T13:19:55;99336.48;;;11.05;78.12
75536;BME280;64119;52.070;20.804;2023-04-25T13:22:23;99337.16;;;11.06;77.69
75536;BME280;64119;52.070;20.804;2023-04-25T13:24:51;99334.37;;;11.07;77.42
75536;BME280;64119;52.070;20.804;2023-04-25T13:27:18;99336.09;;;11.09;78.44
75536;BME280;64119;52.070;20.804;2023-04-25T13:29:47;99336.48;;;11.10;77.98